Time;durP1;ratioP1;P1;durP2;ratioP2;P2;SDS_P1;SDS_P2;PMS_P1;PMS_P2;Temp;Humidity;BMP_temperature;BMP_pressure;BME280_temperature;BME280_humidity;BME280_pressure;Samples;Min_cycle;Max_cycle;Signal;HPM_P1;HPM_P2
2023/10/06 00:00:50;;;;;;;;;;;;;;;;;;5030627;28;19993;-81
2023/10/06 00:06:37;;;;;;;;;;;;;;;;;;4970346;28;19958;-81
2023/10/06 00:12:13;;;;;;;;;;;;;;;;;;4950306;29;19897;-80
2023/10/06 00:14:48;;;;;;;;;;;;;;;;;;4966741;29;19942;-80
2023/10/06 00:17:21;;;;;;;;;;;;;;;;;;4951988;29;19907;-81
2023/10/06 00:19:55;;;;;;;;;;;;;;;;;;4950875;29;19913;-80
2023/10/06 00:22:26;;;;;;;;;;;;;;;;;;4933511;29;19915;-80
2023/10/06 00:24:59;;;;;;;;;;;;;;;;;;4934062;29;19906;-80
2023/10/06 00:27:29;;;;;;;;;;;;;;;;;;4936654;29;19907;-83
2023/10/06 00:30:11;;;;;;;;;;;;;;;;;;4937705;29;19907;-82
2023/10/06 00:32:54;;;;;;;;;;;;;;;;;;4932159;29;19914;-81
2023/10/06 00:35:22;;;;;;;;;;;;;;;;;;4932447;29;19907;-80
2023/10/06 00:37:51;;;;;;;;;;;;;;;;;;4957778;29;20025;-81
2023/10/06 00:40:24;;;;;;;;;;;;;;;;;;5001781;28;19964;-79
2023/10/06 00:43:08;;;;;;;;;;;;;;;;;;5050251;28;19912;-81
2023/10/06 00:48:35;;;;;;;;;;;;;;;;;;5049175;28;19981;-80
2023/10/06 00:51:04;;;;;;;;;;;;;;;;;;5033327;28;19906;-80
2023/10/06 00:53:52;;;;;;;;;;;;;;;;;;5012378;28;19906;-79
2023/10/06 00:56:46;;;;;;;;;;;;;;;;;;5010920;28;19905;-79
2023/10/06 00:59:30;;;;;;;;;;;;;;;;;;4955742;28;19946;-80
2023/10/06 01:01:59;;;;;;;;;;;;;;;;;;4954985;29;19921;-80
2023/10/06 01:04:34;;;;;;;;;;;;;;;;;;4954606;29;19925;-79
2023/10/06 01:07:08;;;;;;;;;;;;;;;;;;4955138;29;19966;-80
2023/10/06 01:09:34;;;;;;;;;;;;;;;;;;4989008;28;19977;-80
2023/10/06 01:12:17;;;;;;;;;;;;;;;;;;4962383;28;19946;-80
2023/10/06 01:14:43;;;;;;;;;;;;;;;;;;4954842;29;19906;-81
2023/10/06 01:19:47;;;;;;;;;;;;;;;;;;4973198;29;19911;-79
2023/10/06 01:22:41;;;;;;;;;;;;;;;;;;4955406;29;19950;-80
2023/10/06 01:25:20;;;;;;;;;;;;;;;;;;4954933;29;19922;-80
2023/10/06 01:27:50;;;;;;;;;;;;;;;;;;4961256;28;19913;-80
2023/10/06 01:30:32;;;;;;;;;;;;;;;;;;4983321;28;19913;-80
2023/10/06 01:33:00;;;;;;;;;;;;;;;;;;4977185;28;19988;-79
2023/10/06 01:38:22;;;;;;;;;;;;;;;;;;4991276;28;19913;-79
2023/10/06 01:40:52;;;;;;;;;;;;;;;;;;4990625;28;19973;-80
2023/10/06 01:43:22;;;;;;;;;;;;;;;;;;4990730;28;19913;-79
2023/10/06 01:45:51;;;;;;;;;;;;;;;;;;4971438;29;19943;-79
2023/10/06 01:48:23;;;;;;;;;;;;;;;;;;4967631;29;19910;-79
2023/10/06 01:50:55;;;;;;;;;;;;;;;;;;4954715;29;20355;-80
2023/10/06 01:53:42;;;;;;;;;;;;;;;;;;4952482;29;19970;-79
2023/10/06 01:56:13;;;;;;;;;;;;;;;;;;4970355;29;19913;-80
2023/10/06 01:58:41;;;;;;;;;;;;;;;;;;4961493;29;19906;-81
2023/10/06 02:01:10;;;;;;;;;;;;;;;;;;4918636;29;19906;-80
2023/10/06 02:03:42;;;;;;;;;;;;;;;;;;4969144;29;19910;-79
2023/10/06 02:06:16;;;;;;;;;;;;;;;;;;4925664;29;20317;-80
2023/10/06 02:14:29;;;;;;;;;;;;;;;;;;4912329;29;19915;-79
2023/10/06 02:16:55;;;;;;;;;;;;;;;;;;4912150;29;20014;-79
2023/10/06 02:19:21;;;;;;;;;;;;;;;;;;4913641;29;19942;-79
2023/10/06 02:21:51;;;;;;;;;;;;;;;;;;4912788;29;19923;-80
2023/10/06 02:24:23;;;;;;;;;;;;;;;;;;4930905;29;19993;-79
2023/10/06 02:27:00;;;;;;;;;;;;;;;;;;4935701;29;19954;-78
2023/10/06 02:29:26;;;;;;;;;;;;;;;;;;4943828;29;19914;-79
2023/10/06 02:32:01;;;;;;;;;;;;;;;;;;4971210;29;20402;-81
2023/10/06 02:34:32;;;;;;;;;;;;;;;;;;4912958;29;19940;-79
2023/10/06 02:37:01;;;;;;;;;;;;;;;;;;4895807;29;19918;-80
2023/10/06 02:39:28;;;;;;;;;;;;;;;;;;4912178;29;19908;-79
2023/10/06 02:41:57;;;;;;;;;;;;;;;;;;4912171;29;20007;-79
2023/10/06 02:44:23;;;;;;;;;;;;;;;;;;4912263;29;19907;-80
2023/10/06 02:46:55;;;;;;;;;;;;;;;;;;4945952;29;19929;-79
2023/10/06 02:49:35;;;;;;;;;;;;;;;;;;4934284;29;19911;-79
2023/10/06 02:52:01;;;;;;;;;;;;;;;;;;4949637;29;19907;-79
2023/10/06 02:54:29;;;;;;;;;;;;;;;;;;4930560;29;19918;-79
2023/10/06 02:57:03;;;;;;;;;;;;;;;;;;4952455;29;19938;-78
2023/10/06 02:59:34;;;;;;;;;;;;;;;;;;4953890;29;19970;-79
2023/10/06 03:02:06;;;;;;;;;;;;;;;;;;4954223;29;19907;-80
2023/10/06 03:04:36;;;;;;;;;;;;;;;;;;4944583;28;19906;-79
2023/10/06 03:07:11;;;;;;;;;;;;;;;;;;5010727;28;19912;-79
2023/10/06 03:09:49;;;;;;;;;;;;;;;;;;4994070;28;20004;-79
2023/10/06 03:12:39;;;;;;;;;;;;;;;;;;5009335;28;19905;-79
2023/10/06 03:15:42;;;;;;;;;;;;;;;;;;5010846;28;19994;-79
2023/10/06 03:18:09;;;;;;;;;;;;;;;;;;4993633;28;20000;-79
2023/10/06 03:20:50;;;;;;;;;;;;;;;;;;5014941;28;19897;-80
2023/10/06 03:26:04;;;;;;;;;;;;;;;;;;5030554;28;19919;-80
2023/10/06 03:28:37;;;;;;;;;;;;;;;;;;5030657;28;19906;-80
2023/10/06 03:31:35;;;;;;;;;;;;;;;;;;4971586;29;20399;-81
2023/10/06 03:36:57;;;;;;;;;;;;;;;;;;4971506;29;20007;-80
2023/10/06 03:39:50;;;;;;;;;;;;;;;;;;4953380;29;19907;-80
2023/10/06 03:42:47;;;;;;;;;;;;;;;;;;4953128;29;19914;-80
2023/10/06 03:45:34;;;;;;;;;;;;;;;;;;4911239;29;19912;-80
2023/10/06 03:48:13;;;;;;;;;;;;;;;;;;4895624;29;19914;-80
2023/10/06 03:50:59;;;;;;;;;;;;;;;;;;4895547;29;19914;-80
2023/10/06 03:53:32;;;;;;;;;;;;;;;;;;4896446;29;19904;-79
2023/10/06 03:56:01;;;;;;;;;;;;;;;;;;4880472;29;19907;-80
2023/10/06 03:58:48;;;;;;;;;;;;;;;;;;4877992;29;19916;-79
2023/10/06 04:01:51;;;;;;;;;;;;;;;;;;4877540;29;19908;-79
2023/10/06 04:04:10;;;;;;;;;;;;;;;;;;4877098;29;19908;-79
2023/10/06 04:06:58;;;;;;;;;;;;;;;;;;4876615;29;19912;-80
2023/10/06 04:09:28;;;;;;;;;;;;;;;;;;4878920;29;19915;-80
2023/10/06 04:12:00;;;;;;;;;;;;;;;;;;4864826;29;19915;-80
2023/10/06 04:14:32;;;;;;;;;;;;;;;;;;4894891;29;20191;-80
2023/10/06 04:17:05;;;;;;;;;;;;;;;;;;4880860;29;19969;-79
2023/10/06 04:19:34;;;;;;;;;;;;;;;;;;4911818;29;19914;-80
2023/10/06 04:22:03;;;;;;;;;;;;;;;;;;4902973;29;19971;-79
2023/10/06 04:24:34;;;;;;;;;;;;;;;;;;4895521;29;19908;-79
2023/10/06 04:27:02;;;;;;;;;;;;;;;;;;4897931;29;19979;-80
2023/10/06 04:29:55;;;;;;;;;;;;;;;;;;4908332;29;19950;-80
2023/10/06 04:32:25;;;;;;;;;;;;;;;;;;4887032;29;19938;-79
2023/10/06 04:34:54;;;;;;;;;;;;;;;;;;4918426;29;19911;-80
2023/10/06 04:37:22;;;;;;;;;;;;;;;;;;4919389;29;19923;-79
2023/10/06 04:39:48;;;;;;;;;;;;;;;;;;4981016;28;19910;-81
2023/10/06 04:42:21;;;;;;;;;;;;;;;;;;5017862;28;19917;-80
2023/10/06 04:45:08;;;;;;;;;;;;;;;;;;5013944;28;19917;-80
2023/10/06 04:47:36;;;;;;;;;;;;;;;;;;5013603;28;19906;-79
2023/10/06 04:50:09;;;;;;;;;;;;;;;;;;5025131;28;19905;-80
2023/10/06 04:52:35;;;;;;;;;;;;;;;;;;5077353;28;19912;-80
2023/10/06 04:55:04;;;;;;;;;;;;;;;;;;5059939;28;19904;-79
2023/10/06 04:57:32;;;;;;;;;;;;;;;;;;5074326;28;19939;-81
2023/10/06 04:59:58;;;;;;;;;;;;;;;;;;5074910;28;19931;-80
2023/10/06 05:02:26;;;;;;;;;;;;;;;;;;5092769;28;20241;-80
2023/10/06 05:04:52;;;;;;;;;;;;;;;;;;5074812;28;19909;-80
2023/10/06 05:07:24;;;;;;;;;;;;;;;;;;5075164;28;19911;-80
2023/10/06 05:09:55;;;;;;;;;;;;;;;;;;5074920;28;19915;-79
2023/10/06 05:12:24;;;;;;;;;;;;;;;;;;5093400;28;19905;-80
2023/10/06 05:14:50;;;;;;;;;;;;;;;;;;5050336;28;19928;-79
2023/10/06 05:17:16;;;;;;;;;;;;;;;;;;5049550;28;19972;-79
2023/10/06 05:19:42;;;;;;;;;;;;;;;;;;5048605;28;20432;-82
2023/10/06 05:22:08;;;;;;;;;;;;;;;;;;5051417;28;19913;-79
2023/10/06 05:24:35;;;;;;;;;;;;;;;;;;5051311;28;19904;-80
2023/10/06 05:27:02;;;;;;;;;;;;;;;;;;5031314;28;19912;-80
2023/10/06 05:29:28;;;;;;;;;;;;;;;;;;5030925;28;19909;-79
2023/10/06 05:31:55;;;;;;;;;;;;;;;;;;5032131;28;19936;-80
2023/10/06 05:34:24;;;;;;;;;;;;;;;;;;5015756;28;19947;-80
2023/10/06 05:36:55;;;;;;;;;;;;;;;;;;5031101;28;19921;-80
2023/10/06 05:39:21;;;;;;;;;;;;;;;;;;5012191;28;19913;-80
2023/10/06 05:41:51;;;;;;;;;;;;;;;;;;4994981;28;19912;-79
2023/10/06 05:44:21;;;;;;;;;;;;;;;;;;5011730;28;20409;-80
2023/10/06 05:46:48;;;;;;;;;;;;;;;;;;5011132;28;19909;-80
2023/10/06 05:49:14;;;;;;;;;;;;;;;;;;5011815;28;19917;-81
2023/10/06 05:51:43;;;;;;;;;;;;;;;;;;5011483;28;19942;-80
2023/10/06 05:54:09;;;;;;;;;;;;;;;;;;4994155;28;19913;-80
2023/10/06 05:56:44;;;;;;;;;;;;;;;;;;4994155;28;19917;-80
2023/10/06 05:59:18;;;;;;;;;;;;;;;;;;5022430;28;19905;-80
2023/10/06 06:02:02;;;;;;;;;;;;;;;;;;5030724;28;19908;-80
2023/10/06 06:04:34;;;;;;;;;;;;;;;;;;5034473;28;19905;-80
2023/10/06 06:07:02;;;;;;;;;;;;;;;;;;4994851;28;19897;-81
2023/10/06 06:09:30;;;;;;;;;;;;;;;;;;4979170;28;19960;-80
2023/10/06 06:11:58;;;;;;;;;;;;;;;;;;4960134;28;19945;-80
2023/10/06 06:14:24;;;;;;;;;;;;;;;;;;4992178;28;19949;-79
2023/10/06 06:16:50;;;;;;;;;;;;;;;;;;4991141;28;19970;-80
2023/10/06 06:19:17;;;;;;;;;;;;;;;;;;4991223;28;19913;-79
2023/10/06 06:21:48;;;;;;;;;;;;;;;;;;4991191;28;19914;-80
2023/10/06 06:24:22;;;;;;;;;;;;;;;;;;4990995;28;19913;-79
2023/10/06 06:27:09;;;;;;;;;;;;;;;;;;4990999;28;19914;-80
2023/10/06 06:30:04;;;;;;;;;;;;;;;;;;4932359;29;19923;-80
2023/10/06 06:32:52;;;;;;;;;;;;;;;;;;4929747;29;19907;-79
2023/10/06 06:38:04;;;;;;;;;;;;;;;;;;4988985;28;19929;-80
2023/10/06 06:40:30;;;;;;;;;;;;;;;;;;4987544;28;19948;-81
2023/10/06 06:42:56;;;;;;;;;;;;;;;;;;4984247;28;19906;-81
2023/10/06 06:45:24;;;;;;;;;;;;;;;;;;5001668;28;19910;-79
2023/10/06 06:47:50;;;;;;;;;;;;;;;;;;5004007;28;19936;-79
2023/10/06 06:50:17;;;;;;;;;;;;;;;;;;5003401;28;19906;-79
2023/10/06 06:52:48;;;;;;;;;;;;;;;;;;5006943;28;19913;-79
2023/10/06 06:55:17;;;;;;;;;;;;;;;;;;5008771;28;19905;-79
2023/10/06 06:58:06;;;;;;;;;;;;;;;;;;5018908;28;19912;-80
2023/10/06 07:00:53;;;;;;;;;;;;;;;;;;5028908;28;19984;-80
2023/10/06 07:04:00;;;;;;;;;;;;;;;;;;5029114;28;20012;-80
2023/10/06 07:06:27;;;;;;;;;;;;;;;;;;5027620;28;19988;-80
2023/10/06 07:09:17;;;;;;;;;;;;;;;;;;5029222;28;19906;-80
2023/10/06 07:11:51;;;;;;;;;;;;;;;;;;5013116;28;20360;-80
2023/10/06 07:14:18;;;;;;;;;;;;;;;;;;5057105;28;19981;-80
2023/10/06 07:16:47;;;;;;;;;;;;;;;;;;5073700;28;19904;-80
2023/10/06 07:19:18;;;;;;;;;;;;;;;;;;5058019;28;19911;-79
2023/10/06 07:24:55;;;;;;;;;;;;;;;;;;5051983;28;19915;-81
2023/10/06 07:27:21;;;;;;;;;;;;;;;;;;5047343;28;19984;-80
2023/10/06 07:29:49;;;;;;;;;;;;;;;;;;5050921;28;19905;-81
2023/10/06 07:32:34;;;;;;;;;;;;;;;;;;5048711;28;19909;-82
2023/10/06 07:35:09;;;;;;;;;;;;;;;;;;5031271;28;19940;-81
2023/10/06 07:37:36;;;;;;;;;;;;;;;;;;5063407;28;19912;-82
2023/10/06 07:40:04;;;;;;;;;;;;;;;;;;5046988;28;19911;-82
2023/10/06 07:42:52;;;;;;;;;;;;;;;;;;5046844;28;19916;-79
2023/10/06 07:45:32;;;;;;;;;;;;;;;;;;5047620;28;19909;-79
2023/10/06 07:47:58;;;;;;;;;;;;;;;;;;5046616;28;19917;-80
2023/10/06 07:50:29;;;;;;;;;;;;;;;;;;5046807;28;19933;-79
2023/10/06 07:52:55;;;;;;;;;;;;;;;;;;5062043;28;19972;-79
2023/10/06 07:55:22;;;;;;;;;;;;;;;;;;5069130;28;19932;-80
2023/10/06 07:57:48;;;;;;;;;;;;;;;;;;5066324;28;19905;-79
2023/10/06 08:00:18;;;;;;;;;;;;;;;;;;5070376;28;20272;-79
2023/10/06 08:02:44;;;;;;;;;;;;;;;;;;5072977;28;19979;-80
2023/10/06 08:05:13;;;;;;;;;;;;;;;;;;5073078;28;19908;-82
2023/10/06 08:07:39;;;;;;;;;;;;;;;;;;5074129;28;19904;-80
2023/10/06 08:10:05;;;;;;;;;;;;;;;;;;5072790;28;19904;-80
2023/10/06 08:12:33;;;;;;;;;;;;;;;;;;5073592;28;19951;-80
2023/10/06 08:14:59;;;;;;;;;;;;;;;;;;5072682;28;19908;-79
2023/10/06 08:17:27;;;;;;;;;;;;;;;;;;5073530;28;20370;-81
2023/10/06 08:19:54;;;;;;;;;;;;;;;;;;5071637;28;20002;-79
2023/10/06 08:22:24;;;;;;;;;;;;;;;;;;5073798;28;19924;-80
2023/10/06 08:24:50;;;;;;;;;;;;;;;;;;5072519;28;19915;-80
2023/10/06 08:27:21;;;;;;;;;;;;;;;;;;5101732;28;19915;-79
2023/10/06 08:29:47;;;;;;;;;;;;;;;;;;5074435;28;19946;-81
2023/10/06 08:32:13;;;;;;;;;;;;;;;;;;5053674;28;19905;-81
2023/10/06 08:34:39;;;;;;;;;;;;;;;;;;5052918;28;19976;-81
2023/10/06 08:37:10;;;;;;;;;;;;;;;;;;5055814;28;19904;-79
2023/10/06 08:39:40;;;;;;;;;;;;;;;;;;5055368;28;20312;-80
2023/10/06 08:42:05;;;;;;;;;;;;;;;;;;5065451;28;19912;-82
2023/10/06 08:44:32;;;;;;;;;;;;;;;;;;5055755;28;19915;-80
2023/10/06 08:46:58;;;;;;;;;;;;;;;;;;5059063;28;19943;-80
2023/10/06 08:49:25;;;;;;;;;;;;;;;;;;5057642;28;19912;-80
2023/10/06 08:51:51;;;;;;;;;;;;;;;;;;5060684;28;19904;-81
2023/10/06 08:54:17;;;;;;;;;;;;;;;;;;5060978;28;19904;-80
2023/10/06 08:56:43;;;;;;;;;;;;;;;;;;5091449;28;19911;-80
2023/10/06 08:59:15;;;;;;;;;;;;;;;;;;5089207;28;19905;-80
2023/10/06 09:01:41;;;;;;;;;;;;;;;;;;5089302;28;19905;-80
2023/10/06 09:04:09;;;;;;;;;;;;;;;;;;5090458;28;19997;-80
2023/10/06 09:06:38;;;;;;;;;;;;;;;;;;5090308;28;20375;-84
2023/10/06 09:09:05;;;;;;;;;;;;;;;;;;5090456;28;19905;-80
2023/10/06 09:11:32;;;;;;;;;;;;;;;;;;5071988;28;19908;-81
2023/10/06 09:13:58;;;;;;;;;;;;;;;;;;5089711;28;20379;-79
2023/10/06 09:16:27;;;;;;;;;;;;;;;;;;5088493;28;19904;-80
2023/10/06 09:18:53;;;;;;;;;;;;;;;;;;5091689;28;19935;-81
2023/10/06 09:21:19;;;;;;;;;;;;;;;;;;5071169;28;19923;-81
2023/10/06 09:23:45;;;;;;;;;;;;;;;;;;5072469;28;19905;-80
2023/10/06 09:26:13;;;;;;;;;;;;;;;;;;5087332;28;19916;-81
2023/10/06 09:28:39;;;;;;;;;;;;;;;;;;5075946;28;19889;-86
2023/10/06 09:37:10;;;;;;;;;;;;;;;;;;5038222;28;19959;-85
2023/10/06 09:39:56;;;;;;;;;;;;;;;;;;4980068;29;19914;-87
2023/10/06 09:42:25;;;;;;;;;;;;;;;;;;4931817;29;19907;-83
2023/10/06 09:45:15;;;;;;;;;;;;;;;;;;4941738;29;19934;-86
2023/10/06 09:50:50;;;;;;;;;;;;;;;;;;4922752;29;19990;-85
2023/10/06 09:53:31;;;;;;;;;;;;;;;;;;4919732;29;19907;-83
2023/10/06 09:56:00;;;;;;;;;;;;;;;;;;4896546;29;19907;-80
2023/10/06 09:58:44;;;;;;;;;;;;;;;;;;4897688;29;19911;-83
2023/10/06 10:01:31;;;;;;;;;;;;;;;;;;4898184;29;19914;-83
2023/10/06 10:03:57;;;;;;;;;;;;;;;;;;4885988;29;19915;-78
2023/10/06 10:06:23;;;;;;;;;;;;;;;;;;4892478;29;19916;-81
2023/10/06 10:08:56;;;;;;;;;;;;;;;;;;4900091;29;19912;-83
2023/10/06 10:11:42;;;;;;;;;;;;;;;;;;4880631;29;19904;-83
2023/10/06 10:14:18;;;;;;;;;;;;;;;;;;4885264;29;19952;-80
2023/10/06 10:16:45;;;;;;;;;;;;;;;;;;4911031;29;19907;-79
2023/10/06 10:19:31;;;;;;;;;;;;;;;;;;4886884;29;19975;-79
2023/10/06 10:22:03;;;;;;;;;;;;;;;;;;4879460;29;20375;-80
2023/10/06 10:24:31;;;;;;;;;;;;;;;;;;4940532;29;19907;-83
2023/10/06 10:27:22;;;;;;;;;;;;;;;;;;4958750;29;19914;-81
2023/10/06 10:29:52;;;;;;;;;;;;;;;;;;4972468;29;19906;-81
2023/10/06 10:32:26;;;;;;;;;;;;;;;;;;4971387;29;19946;-81
2023/10/06 10:35:15;;;;;;;;;;;;;;;;;;4971488;29;19974;-80
2023/10/06 10:37:43;;;;;;;;;;;;;;;;;;4970049;29;19907;-83
2023/10/06 10:40:12;;;;;;;;;;;;;;;;;;4970722;29;19907;-81
2023/10/06 10:42:59;;;;;;;;;;;;;;;;;;4972495;29;19907;-84
2023/10/06 10:45:45;;;;;;;;;;;;;;;;;;4972858;29;19938;-81
2023/10/06 10:48:15;;;;;;;;;;;;;;;;;;4980611;28;19906;-80
2023/10/06 10:50:44;;;;;;;;;;;;;;;;;;4992324;28;19977;-83
2023/10/06 10:53:33;;;;;;;;;;;;;;;;;;4991448;28;19908;-81
2023/10/06 10:56:06;;;;;;;;;;;;;;;;;;4991890;28;19920;-81
2023/10/06 10:58:57;;;;;;;;;;;;;;;;;;4973494;29;20004;-87
2023/10/06 11:01:44;;;;;;;;;;;;;;;;;;4934347;29;19914;-84
2023/10/06 11:10:01;;;;;;;;;;;;;;;;;;4976091;28;19916;-82
2023/10/06 11:12:29;;;;;;;;;;;;;;;;;;4985689;28;19906;-82
2023/10/06 11:15:02;;;;;;;;;;;;;;;;;;4952310;29;20432;-79
2023/10/06 11:17:37;;;;;;;;;;;;;;;;;;4967546;28;19913;-79
2023/10/06 11:20:13;;;;;;;;;;;;;;;;;;4952516;29;19930;-82
2023/10/06 11:22:45;;;;;;;;;;;;;;;;;;4967969;29;19918;-80
2023/10/06 11:25:18;;;;;;;;;;;;;;;;;;4962956;29;19938;-80
2023/10/06 11:27:47;;;;;;;;;;;;;;;;;;4963940;29;20015;-82
2023/10/06 11:30:15;;;;;;;;;;;;;;;;;;4955264;29;19994;-82
2023/10/06 11:32:43;;;;;;;;;;;;;;;;;;4939653;29;19961;-82
2023/10/06 11:35:09;;;;;;;;;;;;;;;;;;4965492;28;19905;-79
2023/10/06 11:37:36;;;;;;;;;;;;;;;;;;4988666;28;20000;-80
2023/10/06 11:40:02;;;;;;;;;;;;;;;;;;5008856;28;19941;-78
2023/10/06 11:42:35;;;;;;;;;;;;;;;;;;5008693;28;19916;-81
2023/10/06 11:45:06;;;;;;;;;;;;;;;;;;5014929;28;19991;-80
2023/10/06 11:47:32;;;;;;;;;;;;;;;;;;5010386;28;19913;-80
2023/10/06 11:49:57;;;;;;;;;;;;;;;;;;5025454;28;19905;-81
2023/10/06 11:52:24;;;;;;;;;;;;;;;;;;5008478;28;19937;-82
2023/10/06 11:54:51;;;;;;;;;;;;;;;;;;5004863;28;19913;-81
2023/10/06 11:57:17;;;;;;;;;;;;;;;;;;5067600;28;20428;-79
2023/10/06 11:59:44;;;;;;;;;;;;;;;;;;5086849;28;20280;-80
2023/10/06 12:02:10;;;;;;;;;;;;;;;;;;5068935;28;19904;-78
2023/10/06 12:04:37;;;;;;;;;;;;;;;;;;5058211;28;19905;-79
2023/10/06 12:07:04;;;;;;;;;;;;;;;;;;5064118;28;19909;-79
2023/10/06 12:09:30;;;;;;;;;;;;;;;;;;5067515;28;19904;-80
2023/10/06 12:11:57;;;;;;;;;;;;;;;;;;5047239;28;20291;-78
2023/10/06 12:14:25;;;;;;;;;;;;;;;;;;5055208;28;19905;-79
2023/10/06 12:16:50;;;;;;;;;;;;;;;;;;5054439;28;20352;-80
2023/10/06 12:19:16;;;;;;;;;;;;;;;;;;5063120;28;19912;-80
2023/10/06 12:21:43;;;;;;;;;;;;;;;;;;5086675;28;20296;-80
2023/10/06 12:24:11;;;;;;;;;;;;;;;;;;5102502;28;19909;-79
2023/10/06 12:26:38;;;;;;;;;;;;;;;;;;5066476;28;19912;-80
2023/10/06 12:29:04;;;;;;;;;;;;;;;;;;5084741;28;19904;-84
2023/10/06 12:31:30;;;;;;;;;;;;;;;;;;5085028;28;20259;-81
2023/10/06 12:33:56;;;;;;;;;;;;;;;;;;5074001;28;20349;-83
2023/10/06 12:36:22;;;;;;;;;;;;;;;;;;5045315;28;19915;-83
2023/10/06 12:38:49;;;;;;;;;;;;;;;;;;5028101;28;19915;-81
2023/10/06 12:41:17;;;;;;;;;;;;;;;;;;5044140;28;19905;-81
2023/10/06 12:43:47;;;;;;;;;;;;;;;;;;5062612;28;19905;-80
2023/10/06 12:46:13;;;;;;;;;;;;;;;;;;5047968;28;19913;-80
2023/10/06 12:48:39;;;;;;;;;;;;;;;;;;5049464;28;19955;-80
2023/10/06 12:51:05;;;;;;;;;;;;;;;;;;5049709;28;19905;-79
2023/10/06 12:53:33;;;;;;;;;;;;;;;;;;5061313;28;19908;-79
2023/10/06 12:55:59;;;;;;;;;;;;;;;;;;5069662;28;19942;-81
2023/10/06 12:58:25;;;;;;;;;;;;;;;;;;5070402;28;19905;-80
2023/10/06 13:00:51;;;;;;;;;;;;;;;;;;5071087;28;19955;-83
2023/10/06 13:03:17;;;;;;;;;;;;;;;;;;5074142;28;19905;-84
2023/10/06 13:06:03;;;;;;;;;;;;;;;;;;5058097;28;20386;-85
2023/10/06 13:08:46;;;;;;;;;;;;;;;;;;5050761;28;19905;-83
2023/10/06 13:11:18;;;;;;;;;;;;;;;;;;5033846;28;19905;-82
2023/10/06 13:13:50;;;;;;;;;;;;;;;;;;5048954;28;19920;-84
2023/10/06 13:16:37;;;;;;;;;;;;;;;;;;5029297;28;19913;-81
2023/10/06 13:19:12;;;;;;;;;;;;;;;;;;5012971;28;20289;-82
2023/10/06 13:21:42;;;;;;;;;;;;;;;;;;5014874;28;19897;-81
2023/10/06 13:24:09;;;;;;;;;;;;;;;;;;5031906;28;19948;-83
2023/10/06 13:26:41;;;;;;;;;;;;;;;;;;4992099;28;19914;-82
2023/10/06 13:29:10;;;;;;;;;;;;;;;;;;4975181;28;19929;-82
2023/10/06 13:31:40;;;;;;;;;;;;;;;;;;4994271;28;19972;-84
2023/10/06 13:34:19;;;;;;;;;;;;;;;;;;4976694;28;19916;-84
2023/10/06 13:37:07;;;;;;;;;;;;;;;;;;4994092;28;19902;-84
2023/10/06 13:39:54;;;;;;;;;;;;;;;;;;4985682;28;19906;-85
2023/10/06 13:42:46;;;;;;;;;;;;;;;;;;4953376;29;19907;-81
2023/10/06 13:47:59;;;;;;;;;;;;;;;;;;4917795;29;19962;-84
2023/10/06 13:50:36;;;;;;;;;;;;;;;;;;4935815;29;19908;-83
2023/10/06 13:53:11;;;;;;;;;;;;;;;;;;4951874;29;19918;-88
2023/10/06 13:55:44;;;;;;;;;;;;;;;;;;4935243;29;19914;-84
2023/10/06 13:58:13;;;;;;;;;;;;;;;;;;4942191;29;19897;-85
2023/10/06 14:01:00;;;;;;;;;;;;;;;;;;4936715;29;19907;-83
2023/10/06 14:06:48;;;;;;;;;;;;;;;;;;4939919;29;19917;-85
2023/10/06 14:09:38;;;;;;;;;;;;;;;;;;4918872;29;19911;-84
2023/10/06 14:12:29;;;;;;;;;;;;;;;;;;4878837;29;19987;-85
2023/10/06 14:15:22;;;;;;;;;;;;;;;;;;4877933;29;19908;-83
2023/10/06 14:23:42;;;;;;;;;;;;;;;;;;4895839;29;19979;-85
2023/10/06 14:26:23;;;;;;;;;;;;;;;;;;4897204;29;19962;-83
2023/10/06 14:28:52;;;;;;;;;;;;;;;;;;4898802;29;19923;-84
2023/10/06 14:34:36;;;;;;;;;;;;;;;;;;4903005;29;19909;-84
2023/10/06 14:48:08;;;;;;;;;;;;;;;;;;4903219;29;19972;-85
2023/10/06 14:53:38;;;;;;;;;;;;;;;;;;4975715;29;19964;-84
2023/10/06 15:07:51;;;;;;;;;;;;;;;;;;4957794;29;19915;-87
2023/10/06 15:10:40;;;;;;;;;;;;;;;;;;4919183;29;19911;-83
2023/10/06 15:19:01;;;;;;;;;;;;;;;;;;4917965;29;19895;-82
2023/10/06 15:22:08;;;;;;;;;;;;;;;;;;4879229;29;19942;-85
2023/10/06 15:24:53;;;;;;;;;;;;;;;;;;4860349;29;19908;-83
2023/10/06 15:27:25;;;;;;;;;;;;;;;;;;4861070;29;19917;-85
2023/10/06 15:38:31;;;;;;;;;;;;;;;;;;4882388;29;19934;-85
2023/10/06 15:46:49;;;;;;;;;;;;;;;;;;4919942;29;19947;-87
2023/10/06 15:55:10;;;;;;;;;;;;;;;;;;4919605;29;19913;-85
2023/10/06 16:06:11;;;;;;;;;;;;;;;;;;4919026;29;19922;-83
2023/10/06 16:11:50;;;;;;;;;;;;;;;;;;4941247;29;19977;-83
2023/10/06 16:14:39;;;;;;;;;;;;;;;;;;4954037;29;19906;-81
2023/10/06 16:17:14;;;;;;;;;;;;;;;;;;4924839;29;19921;-80
2023/10/06 16:19:46;;;;;;;;;;;;;;;;;;4927471;29;19907;-81
2023/10/06 16:22:30;;;;;;;;;;;;;;;;;;4954979;29;19907;-81
2023/10/06 16:28:01;;;;;;;;;;;;;;;;;;4978920;28;19921;-80
2023/10/06 16:30:28;;;;;;;;;;;;;;;;;;4980436;28;19930;-83
2023/10/06 16:33:17;;;;;;;;;;;;;;;;;;4957857;29;19998;-82
2023/10/06 16:46:55;;;;;;;;;;;;;;;;;;5029721;28;19991;-80
2023/10/06 16:49:23;;;;;;;;;;;;;;;;;;5034950;28;19969;-80
2023/10/06 16:51:59;;;;;;;;;;;;;;;;;;5034573;28;19916;-80
2023/10/06 16:54:33;;;;;;;;;;;;;;;;;;5035262;28;19988;-80
2023/10/06 17:00:09;;;;;;;;;;;;;;;;;;5015961;28;19929;-80
2023/10/06 17:02:36;;;;;;;;;;;;;;;;;;4998719;28;19976;-81
2023/10/06 17:05:28;;;;;;;;;;;;;;;;;;4994789;28;19910;-81
2023/10/06 17:08:14;;;;;;;;;;;;;;;;;;4995880;28;20398;-80
2023/10/06 17:10:41;;;;;;;;;;;;;;;;;;4978907;28;20056;-81
2023/10/06 17:13:26;;;;;;;;;;;;;;;;;;4956846;29;19945;-82
2023/10/06 17:15:54;;;;;;;;;;;;;;;;;;4954839;29;19962;-80
2023/10/06 17:18:21;;;;;;;;;;;;;;;;;;4953984;29;19914;-79
2023/10/06 17:20:47;;;;;;;;;;;;;;;;;;4972342;28;19906;-78
2023/10/06 17:23:13;;;;;;;;;;;;;;;;;;4971331;28;19960;-79
2023/10/06 17:25:39;;;;;;;;;;;;;;;;;;4971988;28;20384;-79
2023/10/06 17:28:07;;;;;;;;;;;;;;;;;;4972207;28;20402;-81
2023/10/06 17:30:35;;;;;;;;;;;;;;;;;;4973347;29;19969;-82
2023/10/06 17:33:01;;;;;;;;;;;;;;;;;;4971749;29;19907;-82
2023/10/06 17:35:28;;;;;;;;;;;;;;;;;;4972193;29;19906;-80
2023/10/06 17:37:57;;;;;;;;;;;;;;;;;;4956552;29;19907;-80
2023/10/06 17:40:23;;;;;;;;;;;;;;;;;;4956117;29;20322;-80
2023/10/06 17:42:53;;;;;;;;;;;;;;;;;;4942608;29;19979;-80
2023/10/06 17:45:19;;;;;;;;;;;;;;;;;;4954280;28;19914;-81
2023/10/06 17:47:45;;;;;;;;;;;;;;;;;;4973001;28;19930;-80
2023/10/06 17:50:12;;;;;;;;;;;;;;;;;;4973826;28;19910;-82
2023/10/06 17:52:38;;;;;;;;;;;;;;;;;;5006423;28;19917;-81
2023/10/06 17:55:04;;;;;;;;;;;;;;;;;;5006330;28;19906;-80
2023/10/06 17:57:30;;;;;;;;;;;;;;;;;;5010292;28;19993;-80
2023/10/06 17:59:56;;;;;;;;;;;;;;;;;;5024400;28;19906;-81
2023/10/06 18:02:22;;;;;;;;;;;;;;;;;;5021304;28;20352;-80
2023/10/06 18:04:51;;;;;;;;;;;;;;;;;;5022974;28;19917;-80
2023/10/06 18:07:18;;;;;;;;;;;;;;;;;;5038742;28;19921;-80
2023/10/06 18:09:44;;;;;;;;;;;;;;;;;;5043503;28;20412;-79
2023/10/06 18:12:16;;;;;;;;;;;;;;;;;;5040564;28;19936;-80
2023/10/06 18:14:42;;;;;;;;;;;;;;;;;;5023328;28;20301;-79
2023/10/06 18:17:11;;;;;;;;;;;;;;;;;;5023854;28;19932;-81
2023/10/06 18:19:37;;;;;;;;;;;;;;;;;;5037800;28;19912;-79
2023/10/06 18:22:04;;;;;;;;;;;;;;;;;;5038658;28;19945;-79
2023/10/06 18:24:30;;;;;;;;;;;;;;;;;;5038217;28;19912;-80
2023/10/06 18:26:56;;;;;;;;;;;;;;;;;;5039877;28;19981;-79
2023/10/06 18:29:23;;;;;;;;;;;;;;;;;;5057028;28;19905;-79
2023/10/06 18:31:50;;;;;;;;;;;;;;;;;;5067386;28;19976;-79
2023/10/06 18:34:17;;;;;;;;;;;;;;;;;;5066142;28;19904;-80
2023/10/06 18:36:43;;;;;;;;;;;;;;;;;;5066492;28;20282;-79
2023/10/06 18:39:13;;;;;;;;;;;;;;;;;;5065387;28;19948;-80
2023/10/06 18:41:39;;;;;;;;;;;;;;;;;;5066777;28;19908;-81
2023/10/06 18:44:10;;;;;;;;;;;;;;;;;;5065742;28;20026;-80
2023/10/06 18:46:36;;;;;;;;;;;;;;;;;;5065655;28;19908;-79
2023/10/06 18:49:02;;;;;;;;;;;;;;;;;;5065495;28;19975;-79
2023/10/06 18:51:29;;;;;;;;;;;;;;;;;;5065617;28;19908;-79
2023/10/06 18:53:56;;;;;;;;;;;;;;;;;;5065271;28;20317;-80
2023/10/06 18:56:22;;;;;;;;;;;;;;;;;;5065081;28;19912;-80
2023/10/06 18:58:48;;;;;;;;;;;;;;;;;;5065190;28;19908;-79
2023/10/06 19:01:14;;;;;;;;;;;;;;;;;;5064796;28;19976;-80
2023/10/06 19:03:43;;;;;;;;;;;;;;;;;;5064925;28;19904;-79
2023/10/06 19:06:16;;;;;;;;;;;;;;;;;;5064639;28;19912;-80
2023/10/06 19:08:49;;;;;;;;;;;;;;;;;;5065311;28;19964;-79
2023/10/06 19:11:15;;;;;;;;;;;;;;;;;;5064814;28;20248;-79
2023/10/06 19:13:41;;;;;;;;;;;;;;;;;;5064719;28;19904;-78
2023/10/06 19:16:09;;;;;;;;;;;;;;;;;;5063761;28;19958;-78
2023/10/06 19:18:35;;;;;;;;;;;;;;;;;;5064839;28;19911;-78
2023/10/06 19:21:01;;;;;;;;;;;;;;;;;;5064498;28;19908;-82
2023/10/06 19:23:30;;;;;;;;;;;;;;;;;;5064411;28;19971;-78
2023/10/06 19:25:56;;;;;;;;;;;;;;;;;;5065305;28;19908;-79
2023/10/06 19:28:22;;;;;;;;;;;;;;;;;;5064804;28;19920;-79
2023/10/06 19:30:48;;;;;;;;;;;;;;;;;;5064653;28;19943;-79
2023/10/06 19:33:14;;;;;;;;;;;;;;;;;;5063864;28;19935;-78
2023/10/06 19:35:40;;;;;;;;;;;;;;;;;;5064224;28;19904;-79
2023/10/06 19:38:07;;;;;;;;;;;;;;;;;;5065004;28;19904;-78
2023/10/06 19:40:33;;;;;;;;;;;;;;;;;;5067089;28;19991;-78